Buoy 13526

sailwx.info

Track history (hours):
 
Tides and Currents Weather Stations Pressure Air Temp Water Temp Dewpoint Dewpoint Depression Visibility Wind Speed Wind Dir Waves Ship Positions

Drifting buoy 13526

Last reported at 2014-Jul-28 18:21 UTC. Time now 2014-Jul-28 20:32 UTC.
Position N 25°12' W 034°51'.

Water temperature 26.7 ° C

Date/timePositionNaut miles runAvg speedWind from/ knotsBaromVisibWave heightAir tempDewpointWater temp
2014-Jul-28 18:21N 25°12' W 034°51'0 0.0 26.7
2014-Jul-28 17:41N 25°12' W 034°51'2 8.2 26.6
2014-Jul-28 17:28N 25°13' W 034°52'0 0.0 26.6
2014-Jul-28 15:52N 25°13' W 034°52'1 0.6 26.6
2014-Jul-28 14:08N 25°13' W 034°51'0 0.0 26.4
2014-Jul-28 12:20N 25°13' W 034°51'1 4.9 26.2
2014-Jul-28 12:11N 25°13' W 034°52'0 0.0
2014-Jul-28 11:24N 25°13' W 034°52'1 7.3 26.1
2014-Jul-28 11:19N 25°14' W 034°52'0 0.0 26.1
2014-Jul-28 10:36N 25°14' W 034°52'0 0.3 26.0
2014-Jul-28 09:42N 25°14' W 034°52'0 0.0 26.0
2014-Jul-28 08:52N 25°14' W 034°52'1 2.8 26.0
2014-Jul-28 08:39N 25°14' W 034°53'122.1 26.1
2014-Jul-28 08:36N 25°15' W 034°52'0 0.0 26.1
2014-Jul-28 07:09N 25°15' W 034°52'0 1.6 26.1
2014-Jul-28 06:57N 25°15' W 034°53'0 1.0 26.1
2014-Jul-28 06:28N 25°15' W 034°53'0 0.5 26.1
2014-Jul-28 06:09N 25°15' W 034°53'1 7.4 26.2
2014-Jul-28 06:03N 25°16' W 034°54'0 0.1 26.2
2014-Jul-28 05:16N 25°16' W 034°53'1 6.7 26.2
2014-Jul-28 05:11N 25°16' W 034°54'0 0.1 26.2
2014-Jul-28 04:28N 25°16' W 034°54'0 1.8 26.2
2014-Jul-28 04:20N 25°15' W 034°54'0 0.0 26.2
2014-Jul-28 02:48N 25°15' W 034°54'1 0.5 26.3
2014-Jul-28 00:41N 25°15' W 034°55'0 0.4 26.6
2014-Jul-27 23:55N 25°16' W 034°56'0 0.0 26.7
2014-Jul-27 23:52N 25°16' W 034°56'0 3.2 26.7
2014-Jul-27 23:46N 25°16' W 034°55'0 0.5 26.7
2014-Jul-27 22:57N 25°16' W 034°56'0 0.0 26.6
2014-Jul-27 22:52N 25°16' W 034°56'0 0.1 26.6
2014-Jul-27 21:42N 25°16' W 034°56'0 0.1 26.8
2014-Jul-27 20:08N 25°16' W 034°56'0 1.6 27.2
2014-Jul-27 19:54N 25°16' W 034°56'0 1.7 27.2
2014-Jul-27 19:41N 25°16' W 034°56'0 0.3 27.2
2014-Jul-27 18:32N 25°16' W 034°56'0 0.0 27.3
2014-Jul-27 18:28N 25°16' W 034°56'1 3.4 27.3
2014-Jul-27 18:07N 25°16' W 034°57'1 2.6 27.2
2014-Jul-27 17:39N 25°15' W 034°56'0 0.0 27.2
2014-Jul-27 16:49N 25°15' W 034°56'0 0.0 27.2
2014-Jul-27 16:03N 25°15' W 034°56'0 0.0 27.0
2014-Jul-27 15:57N 25°15' W 034°56'0 0.0 27.2
2014-Jul-27 14:20N 25°15' W 034°56'1 0.5 26.8
2014-Jul-27 12:34N 25°16' W 034°57'1 7.8 26.3
2014-Jul-27 12:30N 25°17' W 034°57'0 0.0 26.3
2014-Jul-27 11:41N 25°17' W 034°57'011.9
2014-Jul-27 11:39N 25°17' W 034°58'1 0.9 26.2
2014-Jul-27 10:56N 25°17' W 034°57'0 0.0 26.1
2014-Jul-27 09:23N 25°17' W 034°57'1 1.0 26.0
2014-Jul-27 08:47N 25°17' W 034°57'0 0.0 26.0
2014-Jul-27 08:29N 25°17' W 034°57'1 0.9 26.0
2014-Jul-27 07:43N 25°17' W 034°57'0 0.9 26.0
2014-Jul-27 07:08N 25°17' W 034°57'0 4.9 26.0
2014-Jul-27 07:03N 25°18' W 034°57'0 0.0 26.0
2014-Jul-27 06:51N 25°18' W 034°57'0 3.2 26.0
2014-Jul-27 06:45N 25°18' W 034°57'0 0.0 26.0
2014-Jul-27 06:20N 25°18' W 034°57'0 0.2 26.0
2014-Jul-27 05:28N 25°18' W 034°57'1 0.9 26.0
2014-Jul-27 04:39N 25°18' W 034°56'2 1.2 26.0
2014-Jul-27 02:56N 25°19' W 034°58'114.9
2014-Jul-27 02:53N 25°19' W 034°59'0 0.1 26.2
2014-Jul-27 00:57N 25°19' W 034°59'0 0.0 26.4
2014-Jul-27 00:11N 25°19' W 034°59'0 7.4 26.6
2014-Jul-27 00:09N 25°20' W 034°59'0 0.0 26.6
2014-Jul-26 23:22N 25°20' W 034°59'0 3.3 26.8
2014-Jul-26 23:17N 25°20' W 034°59'0 0.2 26.8
2014-Jul-26 22:32N 25°19' W 034°59'1 8.1 26.7
2014-Jul-26 22:26N 25°20' W 034°59'1 5.0
2014-Jul-26 22:11N 25°20' W 035°00'0 0.0 26.6
2014-Jul-26 21:37N 25°20' W 035°00'0 0.1 26.9
2014-Jul-26 20:25N 25°20' W 035°01'0 0.0 26.9
2014-Jul-26 20:18N 25°20' W 035°01'0 1.2 26.9
2014-Jul-26 20:10N 25°20' W 035°00'0 0.1 26.9
2014-Jul-26 18:41N 25°20' W 035°01'0 2.7 27.0
2014-Jul-26 18:30N 25°20' W 035°00'1 1.5 27.0
2014-Jul-26 17:50N 25°20' W 035°01'0 0.3 27.4
2014-Jul-26 17:00N 25°20' W 035°01'0 0.1 27.0
2014-Jul-26 16:11N 25°20' W 035°01'1 0.5 26.9
2014-Jul-26 14:31N 25°20' W 035°02'0 0.0 26.4
2014-Jul-26 13:47N 25°20' W 035°02'0 0.5 26.3
2014-Jul-26 12:54N 25°20' W 035°02'0 0.1 26.0
2014-Jul-26 12:05N 25°20' W 035°02'1 6.6 26.0
2014-Jul-26 11:56N 25°20' W 035°03'0 0.0
2014-Jul-26 11:19N 25°20' W 035°03'0 0.0 25.9
2014-Jul-26 11:12N 25°20' W 035°03'0 0.2 25.8
2014-Jul-26 10:24N 25°20' W 035°03'0 4.2 25.8
2014-Jul-26 10:18N 25°21' W 035°03'1 2.6
2014-Jul-26 09:52N 25°20' W 035°04'1 1.0 25.8
2014-Jul-26 08:57N 25°20' W 035°03'0 0.0 25.7
2014-Jul-26 08:55N 25°20' W 035°03'0 0.7 25.7
2014-Jul-26 08:11N 25°20' W 035°02'1 0.6 25.7
2014-Jul-26 06:34N 25°21' W 035°03'0 0.0 25.8
2014-Jul-26 06:31N 25°21' W 035°03'1 0.7 25.8
2014-Jul-26 05:34N 25°21' W 035°02'0 0.0 25.8
2014-Jul-26 04:50N 25°21' W 035°02'0 2.3 25.8
2014-Jul-26 04:44N 25°21' W 035°02'0 0.0 25.8
2014-Jul-26 03:10N 25°21' W 035°02'218.8 25.9
2014-Jul-26 03:04N 25°23' W 035°04'0 0.1 25.9
2014-Jul-26 01:18N 25°23' W 035°04'0 0.4 25.9
2014-Jul-26 00:34N 25°23' W 035°04'1 0.3 25.9
2014-Jul-25 22:53N 25°23' W 035°04'213.4 26.0
2014-Jul-25 22:46N 25°22' W 035°04'0 0.5 26.0
2014-Jul-25 22:39N 25°22' W 035°04'0 0.0
2014-Jul-25 22:00N 25°22' W 035°04'227.4 26.0
2014-Jul-25 21:56N 25°24' W 035°05'1 0.7 26.0
2014-Jul-25 21:07N 25°23' W 035°04'1 2.7 26.0
2014-Jul-25 20:55N 25°24' W 035°05'0 1.0 26.0
2014-Jul-25 20:35N 25°24' W 035°05'0 0.0 26.1
2014-Jul-25 19:18N 25°24' W 035°05'0 0.2 26.2
2014-Jul-25 18:53N 25°24' W 035°05'1 0.9 26.1
2014-Jul-25 17:58N 25°24' W 035°06'0 0.0
2014-Jul-25 17:11N 25°24' W 035°06'1 0.8 26.2
2014-Jul-25 16:25N 25°24' W 035°06'1 0.5 26.2
2014-Jul-25 14:42N 25°25' W 035°07'0 0.0 26.0
2014-Jul-25 14:05N 25°25' W 035°07'0 0.0 26.0
2014-Jul-25 13:21N 25°25' W 035°07'0 1.6 25.9
2014-Jul-25 13:18N 25°25' W 035°07'0 1.9 25.9
2014-Jul-25 13:10N 25°25' W 035°07'0 0.0 25.9
2014-Jul-25 12:24N 25°25' W 035°07'1 7.3 25.8
2014-Jul-25 12:18N 25°24' W 035°08'0 0.6 25.8
2014-Jul-25 11:33N 25°24' W 035°08'0 0.0 25.8
2014-Jul-25 10:46N 25°24' W 035°08'0 0.0 25.7
2014-Jul-25 10:41N 25°24' W 035°08'0 0.0 25.7
2014-Jul-25 09:21N 25°24' W 035°08'0 0.0 25.7
2014-Jul-25 08:46N 25°24' W 035°08'1 0.4 25.7
2014-Jul-25 07:28N 25°24' W 035°07'0 0.8 25.7
2014-Jul-25 07:07N 25°24' W 035°07'0 0.3 25.7
2014-Jul-25 06:39N 25°24' W 035°07'0 0.1
2014-Jul-25 05:51N 25°24' W 035°07'0 3.2 25.7
2014-Jul-25 05:44N 25°25' W 035°07'0 0.0 25.7
2014-Jul-25 04:56N 25°25' W 035°07'0 0.0 25.7
2014-Jul-25 04:55N 25°25' W 035°07'0 0.0 25.7
2014-Jul-25 03:24N 25°25' W 035°07'230.1 25.7
2014-Jul-25 03:21N 25°26' W 035°07'0 0.0 25.7
2014-Jul-25 03:15N 25°26' W 035°07'0 0.0 25.7
2014-Jul-25 00:51N 25°26' W 035°07'0 0.5 25.8
2014-Jul-25 00:02N 25°26' W 035°07'0 0.4 25.8
2014-Jul-24 23:10N 25°27' W 035°07'132.3 25.8
2014-Jul-24 23:08N 25°28' W 035°08'0 0.0 25.8
2014-Jul-24 23:05N 25°28' W 035°08'0 0.0 25.8
2014-Jul-24 22:22N 25°28' W 035°08'116.6 25.9
2014-Jul-24 22:19N 25°27' W 035°07'0 0.0 25.9
2014-Jul-24 21:35N 25°27' W 035°07'1 1.9 25.9
2014-Jul-24 20:56N 25°28' W 035°08'0 0.0 25.9
2014-Jul-24 19:47N 25°28' W 035°08'1 0.7 26.0
2014-Jul-24 19:06N 25°28' W 035°07'1 0.8 26.1
2014-Jul-24 17:40N 25°28' W 035°09'0 1.6 26.2
2014-Jul-24 17:25N 25°29' W 035°09'1 1.7 26.2
2014-Jul-24 16:36N 25°29' W 035°10'0 0.0 26.1
2014-Jul-24 14:54N 25°29' W 035°10'0 0.1 26.0
2014-Jul-24 13:41N 25°29' W 035°10'1 1.3 25.9
2014-Jul-24 12:41N 25°29' W 035°11'0 2.5 25.8
2014-Jul-24 12:38N 25°29' W 035°11'0 0.3 25.8
2014-Jul-24 11:57N 25°29' W 035°11'0 0.0 25.7
2014-Jul-24 11:53N 25°29' W 035°11'0 0.1 25.7
2014-Jul-24 11:04N 25°29' W 035°11'113.6 25.7
2014-Jul-24 11:01N 25°28' W 035°11'0 0.2 25.7
2014-Jul-24 09:42N 25°29' W 035°11'0 0.5 25.6
2014-Jul-24 09:09N 25°28' W 035°11'0 0.3 25.7
2014-Jul-24 08:02N 25°29' W 035°11'0 0.3 25.6
2014-Jul-24 07:40N 25°29' W 035°11'0 2.2 25.6
2014-Jul-24 07:37N 25°29' W 035°11'1 0.4 25.6
2014-Jul-24 06:25N 25°28' W 035°12'0 5.4 25.7
2014-Jul-24 06:21N 25°28' W 035°11'0 0.0 25.7
2014-Jul-24 06:05N 25°28' W 035°11'0 4.8 25.7
2014-Jul-24 06:02N 25°29' W 035°11'1 5.2 25.7
2014-Jul-24 05:56N 25°28' W 035°12'0 0.0 25.7
2014-Jul-24 05:10N 25°28' W 035°12'1 0.5 25.7
2014-Jul-24 03:35N 25°28' W 035°11'0 3.2 25.7
2014-Jul-24 03:32N 25°28' W 035°11'111.5 25.7
2014-Jul-24 03:26N 25°29' W 035°11'0 0.0 25.7
2014-Jul-24 01:14N 25°29' W 035°11'0 0.0 25.7
2014-Jul-24 00:25N 25°29' W 035°11'1 1.1 25.7
2014-Jul-23 23:37N 25°30' W 035°12'0 0.0 25.8
2014-Jul-23 23:33N 25°30' W 035°12'0 0.0
2014-Jul-23 23:27N 25°30' W 035°12'0 0.0 25.8
2014-Jul-23 22:39N 25°30' W 035°12'0 0.0 25.9
2014-Jul-23 22:35N 25°30' W 035°12'0 0.0 25.9
2014-Jul-23 22:07N 25°30' W 035°12'1 0.8 25.9
2014-Jul-23 20:20N 25°31' W 035°13'0 0.0 26.0
2014-Jul-23 19:46N 25°31' W 035°13'0 0.0 26.0
2014-Jul-23 19:17N 25°31' W 035°13'0 0.0 26.0
2014-Jul-23 18:05N 25°31' W 035°13'0 0.7 26.0
2014-Jul-23 17:36N 25°31' W 035°12'0 0.1 26.1
2014-Jul-23 16:47N 25°31' W 035°12'0 1.0 26.0
2014-Jul-23 16:42N 25°31' W 035°12'1 0.6 26.0
2014-Jul-23 15:05N 25°31' W 035°13'1 0.3 26.0
2014-Jul-23 13:10N 25°32' W 035°14'0 2.3 25.9
2014-Jul-23 13:00N 25°32' W 035°14'0 0.1 25.9
2014-Jul-23 12:24N 25°32' W 035°14'1 5.4 25.8
2014-Jul-23 12:18N 25°32' W 035°15'0 0.0 25.8
2014-Jul-23 12:15N 25°32' W 035°15'0 0.0 25.8
2014-Jul-23 11:25N 25°32' W 035°15'111.1 25.8
2014-Jul-23 11:22N 25°32' W 035°15'1 0.8 25.8
2014-Jul-23 10:36N 25°32' W 035°15'0 0.0 25.7
2014-Jul-23 09:46N 25°32' W 035°15'1 0.6 25.7
2014-Jul-23 08:24N 25°32' W 035°16'1 2.2 25.7
2014-Jul-23 08:10N 25°32' W 035°15'0 0.2 25.7
2014-Jul-23 07:51N 25°32' W 035°15'0 0.4 25.7
2014-Jul-23 06:50N 25°32' W 035°15'0 1.2 25.8
2014-Jul-23 06:42N 25°32' W 035°15'0 0.0 25.8
2014-Jul-23 06:26N 25°32' W 035°15'0 0.0 25.8
2014-Jul-23 06:16N 25°32' W 035°15'0 0.5 25.8
2014-Jul-23 06:10N 25°32' W 035°16'0 4.5 25.8
2014-Jul-23 06:07N 25°32' W 035°16'0 0.0 25.8
2014-Jul-23 05:23N 25°32' W 035°16'0 0.2 25.8
2014-Jul-23 03:42N 25°32' W 035°16'1 7.8 25.8
2014-Jul-23 03:37N 25°32' W 035°15'0 0.1 25.8
2014-Jul-23 00:45N 25°31' W 035°15'1 1.0 25.8
2014-Jul-22 23:56N 25°32' W 035°16'0 0.0 25.9
2014-Jul-22 23:55N 25°32' W 035°16'1 1.7 25.9
2014-Jul-22 23:06N 25°32' W 035°15'0 1.6 25.9
2014-Jul-22 22:59N 25°31' W 035°15'123.8 25.9
2014-Jul-22 22:56N 25°32' W 035°15'0 0.6 25.9
2014-Jul-22 22:09N 25°32' W 035°15'0 0.1
2014-Jul-22 20:57N 25°32' W 035°16'1 0.5 26.0
2014-Jul-22 19:28N 25°33' W 035°16'0 0.0 26.1
2014-Jul-22 19:11N 25°33' W 035°16'0 0.0
2014-Jul-22 18:30N 25°33' W 035°16'0 0.0 26.2
2014-Jul-22 18:26N 25°33' W 035°16'0 0.2 26.2
2014-Jul-22 17:48N 25°33' W 035°16'0 0.2 26.2
2014-Jul-22 16:56N 25°33' W 035°15'1 0.5 26.2
2014-Jul-22 15:10N 25°33' W 035°16'1 0.3 26.2
2014-Jul-22 12:45N 25°34' W 035°16'1 5.4 25.9
2014-Jul-22 12:37N 25°34' W 035°17'0 0.0 25.9
2014-Jul-22 11:48N 25°34' W 035°17'0 0.0 25.8
2014-Jul-22 11:40N 25°34' W 035°17'0 0.4 25.8
2014-Jul-22 11:02N 25°35' W 035°17'0 0.0 25.8
2014-Jul-22 08:53N 25°35' W 035°17'1 1.3 25.8
2014-Jul-22 08:04N 25°35' W 035°16'220.2 25.8
2014-Jul-22 07:59N 25°35' W 035°18'1 0.7 25.8
2014-Jul-22 07:10N 25°35' W 035°18'1 3.3 25.7
2014-Jul-22 06:56N 25°36' W 035°18'1 1.8 25.8
2014-Jul-22 06:27N 25°35' W 035°18'0 0.0 25.8
2014-Jul-22 06:24N 25°35' W 035°18'0 2.4 25.8
2014-Jul-22 06:18N 25°35' W 035°18'0 0.2 25.8
2014-Jul-22 05:32N 25°35' W 035°18'0 0.2 25.8
2014-Jul-22 03:57N 25°35' W 035°18'0 0.0 25.9
2014-Jul-22 03:54N 25°35' W 035°18'111.7 25.9
2014-Jul-22 03:49N 25°34' W 035°19'0 0.0 25.9
2014-Jul-22 01:04N 25°34' W 035°19'116.3 26.0
2014-Jul-22 01:01N 25°35' W 035°18'0 0.4 26.0
2014-Jul-22 00:18N 25°35' W 035°18'0 0.1 26.0
2014-Jul-21 23:26N 25°35' W 035°18'0 1.7 26.0
2014-Jul-21 23:20N 25°35' W 035°18'0 0.3 26.0
2014-Jul-21 22:38N 25°35' W 035°19'0 2.8 26.0
2014-Jul-21 22:32N 25°35' W 035°18'0 0.0 26.0
2014-Jul-21 22:29N 25°35' W 035°18'0 0.0 26.0
2014-Jul-21 21:40N 25°35' W 035°18'0 0.0 26.1
2014-Jul-21 21:26N 25°35' W 035°18'1 0.8 26.1
2014-Jul-21 20:34N 25°36' W 035°18'0 0.5 26.2
2014-Jul-21 19:53N 25°36' W 035°19'0 1.1 26.4
2014-Jul-21 19:39N 25°36' W 035°19'0 0.0 26.3
2014-Jul-21 18:54N 25°36' W 035°19'0 0.5 26.4
2014-Jul-21 17:59N 25°36' W 035°19'0 2.5 26.6
2014-Jul-21 17:56N 25°36' W 035°19'0 0.6 26.6
2014-Jul-21 17:07N 25°36' W 035°19'0 0.0 26.5
2014-Jul-21 16:12N 25°36' W 035°19'0 0.1
2014-Jul-21 15:26N 25°36' W 035°19'1 0.3 26.2
2014-Jul-21 13:48N 25°37' W 035°19'0 0.0 25.9
2014-Jul-21 13:05N 25°37' W 035°19'0 2.1 25.8
2014-Jul-21 12:57N 25°37' W 035°19'0 0.4 25.7
2014-Jul-21 12:11N 25°37' W 035°20'0 6.6 25.7
2014-Jul-21 12:08N 25°37' W 035°19'0 4.2
2014-Jul-21 12:02N 25°38' W 035°19'0 0.0 25.7
2014-Jul-21 11:22N 25°38' W 035°19'1 6.4 25.7
2014-Jul-21 11:16N 25°38' W 035°19'0 0.4 25.7
2014-Jul-21 10:27N 25°38' W 035°20'0 0.0 25.6
2014-Jul-21 10:24N 25°38' W 035°20'1 0.7 25.6
2014-Jul-21 09:16N 25°38' W 035°20'1 8.1 25.5
2014-Jul-21 09:10N 25°38' W 035°20'0 0.4 25.5
2014-Jul-21 08:10N 25°38' W 035°20'0 0.0 25.5
2014-Jul-21 07:38N 25°38' W 035°20'114.1 25.5
2014-Jul-21 07:35N 25°38' W 035°21'0 9.7 25.5
2014-Jul-21 07:32N 25°38' W 035°20'0 0.5 25.5
2014-Jul-21 06:35N 25°38' W 035°21'114.0 25.5
2014-Jul-21 06:29N 25°40' W 035°21'0 0.0 25.5
2014-Jul-21 05:57N 25°40' W 035°21'1 4.3 25.6
2014-Jul-21 05:42N 25°39' W 035°20'0 0.0 25.6
2014-Jul-21 05:38N 25°39' W 035°20'0 0.0 25.6
2014-Jul-21 04:08N 25°39' W 035°20'110.0 25.7
2014-Jul-21 04:03N 25°39' W 035°21'0 0.0 25.7
2014-Jul-21 04:00N 25°39' W 035°21'0 0.0 25.7
2014-Jul-21 01:24N 25°39' W 035°21'0 0.0 25.7
2014-Jul-21 01:21N 25°39' W 035°21'1 0.9 25.7
2014-Jul-21 00:36N 25°39' W 035°22'1 0.4 25.7
2014-Jul-20 22:57N 25°39' W 035°22'0 1.2 25.8
2014-Jul-20 22:54N 25°39' W 035°22'1 0.6 25.8
2014-Jul-20 21:57N 25°40' W 035°22'1 1.0 25.9
2014-Jul-20 20:57N 25°39' W 035°23'0 0.0 26.0
2014-Jul-20 20:14N 25°39' W 035°23'1 1.7 26.0
2014-Jul-20 19:48N 25°40' W 035°23'0 0.0 26.0
2014-Jul-20 19:21N 25°40' W 035°23'0 0.0 26.2
2014-Jul-20 19:11N 25°40' W 035°23'0 0.0
2014-Jul-20 18:10N 25°40' W 035°23'1 1.1 26.3
2014-Jul-20 17:35N 25°40' W 035°22'0 0.9 26.3
2014-Jul-20 17:18N 25°40' W 035°23'0 5.4 26.4
2014-Jul-20 17:15N 25°40' W 035°23'0 0.0 26.4
2014-Jul-20 16:27N 25°40' W 035°23'0 0.1 26.3
2014-Jul-20 15:38N 25°40' W 035°23'0 0.3 26.1
2014-Jul-20 14:08N 25°40' W 035°23'0 0.1 25.8
2014-Jul-20 13:20N 25°40' W 035°23'1 0.9 25.8
2014-Jul-20 12:27N 25°40' W 035°23'0 4.5 25.8
2014-Jul-20 12:22N 25°41' W 035°23'0 0.1 25.8
2014-Jul-20 11:42N 25°40' W 035°23'1 6.9 25.7
2014-Jul-20 11:36N 25°41' W 035°23'0 0.6 25.7
2014-Jul-20 10:48N 25°41' W 035°24'1 5.1 25.7
2014-Jul-20 10:41N 25°41' W 035°23'0 0.2
2014-Jul-20 09:42N 25°41' W 035°23'012.6 25.7
2014-Jul-20 09:41N 25°41' W 035°23'0 6.3 25.7
2014-Jul-20 09:39N 25°41' W 035°23'1 0.7 25.7
2014-Jul-20 08:27N 25°42' W 035°23'0 0.0 25.7
2014-Jul-20 08:01N 25°42' W 035°23'110.9 25.7
2014-Jul-20 07:57N 25°41' W 035°23'1 0.7 25.7
2014-Jul-20 06:48N 25°42' W 035°23'0 2.2 25.7
2014-Jul-20 06:40N 25°42' W 035°23'0 0.0 25.7
2014-Jul-20 06:22N 25°42' W 035°23'1 1.2 25.7
2014-Jul-20 05:52N 25°42' W 035°24'0 0.0 25.7
2014-Jul-20 05:49N 25°42' W 035°24'2 1.0 25.7
2014-Jul-20 04:10N 25°43' W 035°25'0 0.0 25.8
2014-Jul-20 04:08N 25°43' W 035°25'0 0.1 25.8
2014-Jul-20 00:57N 25°44' W 035°25'0 0.0
2014-Jul-20 00:55N 25°44' W 035°25'0 0.1 25.8
2014-Jul-20 00:07N 25°44' W 035°25'0 0.4 25.9
2014-Jul-19 23:20N 25°44' W 035°25'0 1.6 25.9
2014-Jul-19 23:11N 25°44' W 035°25'0 0.0
2014-Jul-19 23:09N 25°44' W 035°25'0 0.0 26.0
2014-Jul-19 22:29N 25°44' W 035°25'110.5 26.0
2014-Jul-19 22:23N 25°44' W 035°27'0 0.0 26.0
2014-Jul-19 22:17N 25°44' W 035°27'0 0.1 26.0
2014-Jul-19 20:01N 25°44' W 035°26'1 3.4 26.2
2014-Jul-19 19:45N 25°44' W 035°27'1 1.9 26.3
2014-Jul-19 19:10N 25°43' W 035°27'122.0 26.1
2014-Jul-19 19:07N 25°44' W 035°27'0 0.0 26.1
2014-Jul-19 18:22N 25°44' W 035°27'1 2.2 26.2
2014-Jul-19 18:01N 25°43' W 035°27'0 0.9 26.3
2014-Jul-19 17:29N 25°44' W 035°27'0 1.2 26.7
2014-Jul-19 17:26N 25°44' W 035°27'0 0.4 26.7
2014-Jul-19 16:38N 25°44' W 035°27'0 0.2 26.5
2014-Jul-19 15:51N 25°44' W 035°27'0 0.1 26.2
2014-Jul-19 13:42N 25°44' W 035°27'0 0.0
2014-Jul-19 12:47N 25°44' W 035°27'1 7.3 25.7
2014-Jul-19 12:42N 25°44' W 035°27'0 0.0
2014-Jul-19 12:07N 25°44' W 035°27'0 1.2 25.5
2014-Jul-19 12:04N 25°44' W 035°27'0 7.4 25.5
2014-Jul-19 12:01N 25°44' W 035°28'0 5.3 25.5
2014-Jul-19 11:56N 25°44' W 035°27'0 0.0 25.5
2014-Jul-19 11:10N 25°44' W 035°27'110.8 25.4
2014-Jul-19 11:07N 25°44' W 035°27'126.8 25.4
2014-Jul-19 11:04N 25°46' W 035°27'0 0.0 25.4
2014-Jul-19 10:09N 25°46' W 035°27'0 0.1 25.4
2014-Jul-19 08:37N 25°46' W 035°27'0 5.5 25.3
2014-Jul-19 08:34N 25°46' W 035°27'0 0.0 25.3
2014-Jul-19 08:26N 25°46' W 035°27'1 0.9 25.3
2014-Jul-19 06:56N 25°47' W 035°28'138.7 25.4
2014-Jul-19 06:54N 25°46' W 035°27'1 6.4 25.4
2014-Jul-19 06:42N 25°47' W 035°28'0 0.0 25.4
2014-Jul-19 06:10N 25°47' W 035°28'1 9.3 25.4
2014-Jul-19 06:03N 25°47' W 035°29'0 0.0 25.4
2014-Jul-19 04:27N 25°47' W 035°29'1 0.4 25.5
2014-Jul-19 02:44N 25°47' W 035°29'0 0.0 25.5
2014-Jul-19 00:26N 25°47' W 035°29'1 1.7 25.8
2014-Jul-18 23:40N 25°49' W 035°30'0 0.0 25.9
2014-Jul-18 23:37N 25°49' W 035°30'0 0.0 25.9
2014-Jul-18 23:34N 25°49' W 035°30'0 0.0 25.9
2014-Jul-18 22:48N 25°49' W 035°30'0 0.0 26.0
2014-Jul-18 22:42N 25°49' W 035°30'128.3 26.0
2014-Jul-18 22:39N 25°48' W 035°31'0 0.2 26.0
2014-Jul-18 20:08N 25°48' W 035°31'0 0.0 26.7
2014-Jul-18 20:05N 25°48' W 035°31'0 0.0 26.7
2014-Jul-18 19:36N 25°48' W 035°31'0 0.1 26.8
2014-Jul-18 18:33N 25°48' W 035°32'0 0.5 27.0
2014-Jul-18 18:26N 25°48' W 035°31'   27.1
Track history (hours):
 
Tides and Currents Weather Stations Pressure Air Temp Water Temp Dewpoint Dewpoint Depression Visibility Wind Speed Wind Dir Waves Ship Positions

Drifting buoy 13526

Last reported at 2014-Jul-28 18:21 UTC. Time now 2014-Jul-28 20:32 UTC.
Position N 25°12' W 034°51'.

Water temperature 26.7 ° C

Date/timePositionNaut miles runAvg speedWind from/ knotsBaromVisibWave heightAir tempDewpointWater temp
2014-Jul-28 18:21N 25°12' W 034°51'0 0.0 26.7
2014-Jul-28 17:41N 25°12' W 034°51'2 8.2 26.6
2014-Jul-28 17:28N 25°13' W 034°52'0 0.0 26.6
2014-Jul-28 15:52N 25°13' W 034°52'1 0.6 26.6
2014-Jul-28 14:08N 25°13' W 034°51'0 0.0 26.4
2014-Jul-28 12:20N 25°13' W 034°51'1 4.9 26.2
2014-Jul-28 12:11N 25°13' W 034°52'0 0.0
2014-Jul-28 11:24N 25°13' W 034°52'1 7.3 26.1
2014-Jul-28 11:19N 25°14' W 034°52'0 0.0 26.1
2014-Jul-28 10:36N 25°14' W 034°52'0 0.3 26.0
2014-Jul-28 09:42N 25°14' W 034°52'0 0.0 26.0
2014-Jul-28 08:52N 25°14' W 034°52'1 2.8 26.0
2014-Jul-28 08:39N 25°14' W 034°53'122.1 26.1
2014-Jul-28 08:36N 25°15' W 034°52'0 0.0 26.1
2014-Jul-28 07:09N 25°15' W 034°52'0 1.6 26.1
2014-Jul-28 06:57N 25°15' W 034°53'0 1.0 26.1
2014-Jul-28 06:28N 25°15' W 034°53'0 0.5 26.1
2014-Jul-28 06:09N 25°15' W 034°53'1 7.4 26.2
2014-Jul-28 06:03N 25°16' W 034°54'0 0.1 26.2
2014-Jul-28 05:16N 25°16' W 034°53'1 6.7 26.2
2014-Jul-28 05:11N 25°16' W 034°54'0 0.1 26.2
2014-Jul-28 04:28N 25°16' W 034°54'0 1.8 26.2
2014-Jul-28 04:20N 25°15' W 034°54'0 0.0 26.2
2014-Jul-28 02:48N 25°15' W 034°54'1 0.5 26.3
2014-Jul-28 00:41N 25°15' W 034°55'0 0.4 26.6
2014-Jul-27 23:55N 25°16' W 034°56'0 0.0 26.7
2014-Jul-27 23:52N 25°16' W 034°56'0 3.2 26.7
2014-Jul-27 23:46N 25°16' W 034°55'0 0.5 26.7
2014-Jul-27 22:57N 25°16' W 034°56'0 0.0 26.6
2014-Jul-27 22:52N 25°16' W 034°56'0 0.1 26.6
2014-Jul-27 21:42N 25°16' W 034°56'0 0.1 26.8
2014-Jul-27 20:08N 25°16' W 034°56'0 1.6 27.2
2014-Jul-27 19:54N 25°16' W 034°56'0 1.7 27.2
2014-Jul-27 19:41N 25°16' W 034°56'0 0.3 27.2
2014-Jul-27 18:32N 25°16' W 034°56'0 0.0 27.3
2014-Jul-27 18:28N 25°16' W 034°56'1 3.4 27.3
2014-Jul-27 18:07N 25°16' W 034°57'1 2.6 27.2
2014-Jul-27 17:39N 25°15' W 034°56'0 0.0 27.2
2014-Jul-27 16:49N 25°15' W 034°56'0 0.0 27.2
2014-Jul-27 16:03N 25°15' W 034°56'0 0.0 27.0
2014-Jul-27 15:57N 25°15' W 034°56'0 0.0 27.2
2014-Jul-27 14:20N 25°15' W 034°56'1 0.5 26.8
2014-Jul-27 12:34N 25°16' W 034°57'1 7.8 26.3
2014-Jul-27 12:30N 25°17' W 034°57'0 0.0 26.3
2014-Jul-27 11:41N 25°17' W 034°57'011.9
2014-Jul-27 11:39N 25°17' W 034°58'1 0.9 26.2
2014-Jul-27 10:56N 25°17' W 034°57'0 0.0 26.1
2014-Jul-27 09:23N 25°17' W 034°57'1 1.0 26.0
2014-Jul-27 08:47N 25°17' W 034°57'0 0.0 26.0
2014-Jul-27 08:29N 25°17' W 034°57'1 0.9 26.0
2014-Jul-27 07:43N 25°17' W 034°57'0 0.9 26.0
2014-Jul-27 07:08N 25°17' W 034°57'0 4.9 26.0
2014-Jul-27 07:03N 25°18' W 034°57'0 0.0 26.0
2014-Jul-27 06:51N 25°18' W 034°57'0 3.2 26.0
2014-Jul-27 06:45N 25°18' W 034°57'0 0.0 26.0
2014-Jul-27 06:20N 25°18' W 034°57'0 0.2 26.0
2014-Jul-27 05:28N 25°18' W 034°57'1 0.9 26.0
2014-Jul-27 04:39N 25°18' W 034°56'2 1.2 26.0
2014-Jul-27 02:56N 25°19' W 034°58'114.9
2014-Jul-27 02:53N 25°19' W 034°59'0 0.1 26.2
2014-Jul-27 00:57N 25°19' W 034°59'0 0.0 26.4
2014-Jul-27 00:11N 25°19' W 034°59'0 7.4 26.6
2014-Jul-27 00:09N 25°20' W 034°59'0 0.0 26.6
2014-Jul-26 23:22N 25°20' W 034°59'0 3.3 26.8
2014-Jul-26 23:17N 25°20' W 034°59'0 0.2 26.8
2014-Jul-26 22:32N 25°19' W 034°59'1 8.1 26.7
2014-Jul-26 22:26N 25°20' W 034°59'1 5.0
2014-Jul-26 22:11N 25°20' W 035°00'0 0.0 26.6
2014-Jul-26 21:37N 25°20' W 035°00'0 0.1 26.9
2014-Jul-26 20:25N 25°20' W 035°01'0 0.0 26.9
2014-Jul-26 20:18N 25°20' W 035°01'0 1.2 26.9
2014-Jul-26 20:10N 25°20' W 035°00'0 0.1 26.9
2014-Jul-26 18:41N 25°20' W 035°01'0 2.7 27.0
2014-Jul-26 18:30N 25°20' W 035°00'1 1.5 27.0
2014-Jul-26 17:50N 25°20' W 035°01'0 0.3 27.4
2014-Jul-26 17:00N 25°20' W 035°01'0 0.1 27.0
2014-Jul-26 16:11N 25°20' W 035°01'1 0.5 26.9
2014-Jul-26 14:31N 25°20' W 035°02'0 0.0 26.4
2014-Jul-26 13:47N 25°20' W 035°02'0 0.5 26.3
2014-Jul-26 12:54N 25°20' W 035°02'0 0.1 26.0
2014-Jul-26 12:05N 25°20' W 035°02'1 6.6 26.0
2014-Jul-26 11:56N 25°20' W 035°03'0 0.0
2014-Jul-26 11:19N 25°20' W 035°03'0 0.0 25.9
2014-Jul-26 11:12N 25°20' W 035°03'0 0.2 25.8
2014-Jul-26 10:24N 25°20' W 035°03'0 4.2 25.8
2014-Jul-26 10:18N 25°21' W 035°03'1 2.6
2014-Jul-26 09:52N 25°20' W 035°04'1 1.0 25.8
2014-Jul-26 08:57N 25°20' W 035°03'0 0.0 25.7
2014-Jul-26 08:55N 25°20' W 035°03'0 0.7 25.7
2014-Jul-26 08:11N 25°20' W 035°02'1 0.6 25.7
2014-Jul-26 06:34N 25°21' W 035°03'0 0.0 25.8
2014-Jul-26 06:31N 25°21' W 035°03'1 0.7 25.8
2014-Jul-26 05:34N 25°21' W 035°02'0 0.0 25.8
2014-Jul-26 04:50N 25°21' W 035°02'0 2.3 25.8
2014-Jul-26 04:44N 25°21' W 035°02'0 0.0 25.8
2014-Jul-26 03:10N 25°21' W 035°02'218.8 25.9
2014-Jul-26 03:04N 25°23' W 035°04'0 0.1 25.9
2014-Jul-26 01:18N 25°23' W 035°04'0 0.4 25.9
2014-Jul-26 00:34N 25°23' W 035°04'1 0.3 25.9
2014-Jul-25 22:53N 25°23' W 035°04'213.4 26.0
2014-Jul-25 22:46N 25°22' W 035°04'0 0.5 26.0
2014-Jul-25 22:39N 25°22' W 035°04'0 0.0
2014-Jul-25 22:00N 25°22' W 035°04'227.4 26.0
2014-Jul-25 21:56N 25°24' W 035°05'1 0.7 26.0
2014-Jul-25 21:07N 25°23' W 035°04'1 2.7 26.0
2014-Jul-25 20:55N 25°24' W 035°05'0 1.0 26.0
2014-Jul-25 20:35N 25°24' W 035°05'0 0.0 26.1
2014-Jul-25 19:18N 25°24' W 035°05'0 0.2 26.2
2014-Jul-25 18:53N 25°24' W 035°05'1 0.9 26.1
2014-Jul-25 17:58N 25°24' W 035°06'0 0.0
2014-Jul-25 17:11N 25°24' W 035°06'1 0.8 26.2
2014-Jul-25 16:25N 25°24' W 035°06'1 0.5 26.2
2014-Jul-25 14:42N 25°25' W 035°07'0 0.0 26.0
2014-Jul-25 14:05N 25°25' W 035°07'0 0.0 26.0
2014-Jul-25 13:21N 25°25' W 035°07'0 1.6 25.9
2014-Jul-25 13:18N 25°25' W 035°07'0 1.9 25.9
2014-Jul-25 13:10N 25°25' W 035°07'0 0.0 25.9
2014-Jul-25 12:24N 25°25' W 035°07'1 7.3 25.8
2014-Jul-25 12:18N 25°24' W 035°08'0 0.6 25.8
2014-Jul-25 11:33N 25°24' W 035°08'0 0.0 25.8
2014-Jul-25 10:46N 25°24' W 035°08'0 0.0 25.7
2014-Jul-25 10:41N 25°24' W 035°08'0 0.0 25.7
2014-Jul-25 09:21N 25°24' W 035°08'0 0.0 25.7
2014-Jul-25 08:46N 25°24' W 035°08'1 0.4 25.7
2014-Jul-25 07:28N 25°24' W 035°07'0 0.8 25.7
2014-Jul-25 07:07N 25°24' W 035°07'0 0.3 25.7
2014-Jul-25 06:39N 25°24' W 035°07'0 0.1
2014-Jul-25 05:51N 25°24' W 035°07'0 3.2 25.7
2014-Jul-25 05:44N 25°25' W 035°07'0 0.0 25.7
2014-Jul-25 04:56N 25°25' W 035°07'0 0.0 25.7
2014-Jul-25 04:55N 25°25' W 035°07'0 0.0 25.7
2014-Jul-25 03:24N 25°25' W 035°07'230.1 25.7
2014-Jul-25 03:21N 25°26' W 035°07'0 0.0 25.7
2014-Jul-25 03:15N 25°26' W 035°07'0 0.0 25.7
2014-Jul-25 00:51N 25°26' W 035°07'0 0.5 25.8
2014-Jul-25 00:02N 25°26' W 035°07'0 0.4 25.8
2014-Jul-24 23:10N 25°27' W 035°07'132.3 25.8
2014-Jul-24 23:08N 25°28' W 035°08'0 0.0 25.8
2014-Jul-24 23:05N 25°28' W 035°08'0 0.0 25.8
2014-Jul-24 22:22N 25°28' W 035°08'116.6 25.9
2014-Jul-24 22:19N 25°27' W 035°07'0 0.0 25.9
2014-Jul-24 21:35N 25°27' W 035°07'1 1.9 25.9
2014-Jul-24 20:56N 25°28' W 035°08'0 0.0 25.9
2014-Jul-24 19:47N 25°28' W 035°08'1 0.7 26.0
2014-Jul-24 19:06N 25°28' W 035°07'1 0.8 26.1
2014-Jul-24 17:40N 25°28' W 035°09'0 1.6 26.2
2014-Jul-24 17:25N 25°29' W 035°09'1 1.7 26.2
2014-Jul-24 16:36N 25°29' W 035°10'0 0.0 26.1
2014-Jul-24 14:54N 25°29' W 035°10'0 0.1 26.0
2014-Jul-24 13:41N 25°29' W 035°10'1 1.3 25.9
2014-Jul-24 12:41N 25°29' W 035°11'0 2.5 25.8
2014-Jul-24 12:38N 25°29' W 035°11'0 0.3 25.8
2014-Jul-24 11:57N 25°29' W 035°11'0 0.0 25.7
2014-Jul-24 11:53N 25°29' W 035°11'0 0.1 25.7
2014-Jul-24 11:04N 25°29' W 035°11'113.6 25.7
2014-Jul-24 11:01N 25°28' W 035°11'0 0.2 25.7
2014-Jul-24 09:42N 25°29' W 035°11'0 0.5 25.6
2014-Jul-24 09:09N 25°28' W 035°11'0 0.3 25.7
2014-Jul-24 08:02N 25°29' W 035°11'0 0.3 25.6
2014-Jul-24 07:40N 25°29' W 035°11'0 2.2 25.6
2014-Jul-24 07:37N 25°29' W 035°11'1 0.4 25.6
2014-Jul-24 06:25N 25°28' W 035°12'0 5.4 25.7
2014-Jul-24 06:21N 25°28' W 035°11'0 0.0 25.7
2014-Jul-24 06:05N 25°28' W 035°11'0 4.8 25.7
2014-Jul-24 06:02N 25°29' W 035°11'1 5.2 25.7
2014-Jul-24 05:56N 25°28' W 035°12'0 0.0 25.7
2014-Jul-24 05:10N 25°28' W 035°12'1 0.5 25.7
2014-Jul-24 03:35N 25°28' W 035°11'0 3.2 25.7
2014-Jul-24 03:32N 25°28' W 035°11'111.5 25.7
2014-Jul-24 03:26N 25°29' W 035°11'0 0.0 25.7
2014-Jul-24 01:14N 25°29' W 035°11'0 0.0 25.7
2014-Jul-24 00:25N 25°29' W 035°11'1 1.1 25.7
2014-Jul-23 23:37N 25°30' W 035°12'0 0.0 25.8
2014-Jul-23 23:33N 25°30' W 035°12'0 0.0
2014-Jul-23 23:27N 25°30' W 035°12'0 0.0 25.8
2014-Jul-23 22:39N 25°30' W 035°12'0 0.0 25.9
2014-Jul-23 22:35N 25°30' W 035°12'0 0.0 25.9
2014-Jul-23 22:07N 25°30' W 035°12'1 0.8 25.9
2014-Jul-23 20:20N 25°31' W 035°13'0 0.0 26.0
2014-Jul-23 19:46N 25°31' W 035°13'0 0.0 26.0
2014-Jul-23 19:17N 25°31' W 035°13'0 0.0 26.0
2014-Jul-23 18:05N 25°31' W 035°13'0 0.7 26.0
2014-Jul-23 17:36N 25°31' W 035°12'0 0.1 26.1
2014-Jul-23 16:47N 25°31' W 035°12'0 1.0 26.0
2014-Jul-23 16:42N 25°31' W 035°12'1 0.6 26.0
2014-Jul-23 15:05N 25°31' W 035°13'1 0.3 26.0
2014-Jul-23 13:10N 25°32' W 035°14'0 2.3 25.9
2014-Jul-23 13:00N 25°32' W 035°14'0 0.1 25.9
2014-Jul-23 12:24N 25°32' W 035°14'1 5.4 25.8
2014-Jul-23 12:18N 25°32' W 035°15'0 0.0 25.8
2014-Jul-23 12:15N 25°32' W 035°15'0 0.0 25.8
2014-Jul-23 11:25N 25°32' W 035°15'111.1 25.8
2014-Jul-23 11:22N 25°32' W 035°15'1 0.8 25.8
2014-Jul-23 10:36N 25°32' W 035°15'0 0.0 25.7
2014-Jul-23 09:46N 25°32' W 035°15'1 0.6 25.7
2014-Jul-23 08:24N 25°32' W 035°16'1 2.2 25.7
2014-Jul-23 08:10N 25°32' W 035°15'0 0.2 25.7
2014-Jul-23 07:51N 25°32' W 035°15'0 0.4 25.7
2014-Jul-23 06:50N 25°32' W 035°15'0 1.2 25.8
2014-Jul-23 06:42N 25°32' W 035°15'0 0.0 25.8
2014-Jul-23 06:26N 25°32' W 035°15'0 0.0 25.8
2014-Jul-23 06:16N 25°32' W 035°15'0 0.5 25.8
2014-Jul-23 06:10N 25°32' W 035°16'0 4.5 25.8
2014-Jul-23 06:07N 25°32' W 035°16'0 0.0 25.8
2014-Jul-23 05:23N 25°32' W 035°16'0 0.2 25.8
2014-Jul-23 03:42N 25°32' W 035°16'1 7.8 25.8
2014-Jul-23 03:37N 25°32' W 035°15'0 0.1 25.8
2014-Jul-23 00:45N 25°31' W 035°15'1 1.0 25.8
2014-Jul-22 23:56N 25°32' W 035°16'0 0.0 25.9
2014-Jul-22 23:55N 25°32' W 035°16'1 1.7 25.9
2014-Jul-22 23:06N 25°32' W 035°15'0 1.6 25.9
2014-Jul-22 22:59N 25°31' W 035°15'123.8 25.9
2014-Jul-22 22:56N 25°32' W 035°15'0 0.6 25.9
2014-Jul-22 22:09N 25°32' W 035°15'0 0.1
2014-Jul-22 20:57N 25°32' W 035°16'1 0.5 26.0
2014-Jul-22 19:28N 25°33' W 035°16'0 0.0 26.1
2014-Jul-22 19:11N 25°33' W 035°16'0 0.0
2014-Jul-22 18:30N 25°33' W 035°16'0 0.0 26.2
2014-Jul-22 18:26N 25°33' W 035°16'0 0.2 26.2
2014-Jul-22 17:48N 25°33' W 035°16'0 0.2 26.2
2014-Jul-22 16:56N 25°33' W 035°15'1 0.5 26.2
2014-Jul-22 15:10N 25°33' W 035°16'1 0.3 26.2
2014-Jul-22 12:45N 25°34' W 035°16'1 5.4 25.9
2014-Jul-22 12:37N 25°34' W 035°17'0 0.0 25.9
2014-Jul-22 11:48N 25°34' W 035°17'0 0.0 25.8
2014-Jul-22 11:40N 25°34' W 035°17'0 0.4 25.8
2014-Jul-22 11:02N 25°35' W 035°17'0 0.0 25.8
2014-Jul-22 08:53N 25°35' W 035°17'1 1.3 25.8
2014-Jul-22 08:04N 25°35' W 035°16'220.2 25.8
2014-Jul-22 07:59N 25°35' W 035°18'1 0.7 25.8
2014-Jul-22 07:10N 25°35' W 035°18'1 3.3 25.7
2014-Jul-22 06:56N 25°36' W 035°18'1 1.8 25.8
2014-Jul-22 06:27N 25°35' W 035°18'0 0.0 25.8
2014-Jul-22 06:24N 25°35' W 035°18'0 2.4 25.8
2014-Jul-22 06:18N 25°35' W 035°18'0 0.2 25.8
2014-Jul-22 05:32N 25°35' W 035°18'0 0.2 25.8
2014-Jul-22 03:57N 25°35' W 035°18'0 0.0 25.9
2014-Jul-22 03:54N 25°35' W 035°18'111.7 25.9
2014-Jul-22 03:49N 25°34' W 035°19'0 0.0 25.9
2014-Jul-22 01:04N 25°34' W 035°19'116.3 26.0
2014-Jul-22 01:01N 25°35' W 035°18'0 0.4 26.0
2014-Jul-22 00:18N 25°35' W 035°18'0 0.1 26.0
2014-Jul-21 23:26N 25°35' W 035°18'0 1.7 26.0
2014-Jul-21 23:20N 25°35' W 035°18'0 0.3 26.0
2014-Jul-21 22:38N 25°35' W 035°19'0 2.8 26.0
2014-Jul-21 22:32N 25°35' W 035°18'0 0.0 26.0
2014-Jul-21 22:29N 25°35' W 035°18'0 0.0 26.0
2014-Jul-21 21:40N 25°35' W 035°18'0 0.0 26.1
2014-Jul-21 21:26N 25°35' W 035°18'1 0.8 26.1
2014-Jul-21 20:34N 25°36' W 035°18'0 0.5 26.2
2014-Jul-21 19:53N 25°36' W 035°19'0 1.1 26.4
2014-Jul-21 19:39N 25°36' W 035°19'0 0.0 26.3
2014-Jul-21 18:54N 25°36' W 035°19'0 0.5 26.4
2014-Jul-21 17:59N 25°36' W 035°19'0 2.5 26.6
2014-Jul-21 17:56N 25°36' W 035°19'0 0.6 26.6
2014-Jul-21 17:07N 25°36' W 035°19'0 0.0 26.5
2014-Jul-21 16:12N 25°36' W 035°19'0 0.1
2014-Jul-21 15:26N 25°36' W 035°19'1 0.3 26.2
2014-Jul-21 13:48N 25°37' W 035°19'0 0.0 25.9
2014-Jul-21 13:05N 25°37' W 035°19'0 2.1 25.8
2014-Jul-21 12:57N 25°37' W 035°19'0 0.4 25.7
2014-Jul-21 12:11N 25°37' W 035°20'0 6.6 25.7
2014-Jul-21 12:08N 25°37' W 035°19'0 4.2
2014-Jul-21 12:02N 25°38' W 035°19'0 0.0 25.7
2014-Jul-21 11:22N 25°38' W 035°19'1 6.4 25.7
2014-Jul-21 11:16N 25°38' W 035°19'0 0.4 25.7
2014-Jul-21 10:27N 25°38' W 035°20'0 0.0 25.6
2014-Jul-21 10:24N 25°38' W 035°20'1 0.7 25.6
2014-Jul-21 09:16N 25°38' W 035°20'1 8.1 25.5
2014-Jul-21 09:10N 25°38' W 035°20'0 0.4 25.5
2014-Jul-21 08:10N 25°38' W 035°20'0 0.0 25.5
2014-Jul-21 07:38N 25°38' W 035°20'114.1 25.5
2014-Jul-21 07:35N 25°38' W 035°21'0 9.7 25.5
2014-Jul-21 07:32N 25°38' W 035°20'0 0.5 25.5
2014-Jul-21 06:35N 25°38' W 035°21'114.0 25.5
2014-Jul-21 06:29N 25°40' W 035°21'0 0.0 25.5
2014-Jul-21 05:57N 25°40' W 035°21'1 4.3 25.6
2014-Jul-21 05:42N 25°39' W 035°20'0 0.0 25.6
2014-Jul-21 05:38N 25°39' W 035°20'0 0.0 25.6
2014-Jul-21 04:08N 25°39' W 035°20'110.0 25.7
2014-Jul-21 04:03N 25°39' W 035°21'0 0.0 25.7
2014-Jul-21 04:00N 25°39' W 035°21'0 0.0 25.7
2014-Jul-21 01:24N 25°39' W 035°21'0 0.0 25.7
2014-Jul-21 01:21N 25°39' W 035°21'1 0.9 25.7
2014-Jul-21 00:36N 25°39' W 035°22'1 0.4 25.7
2014-Jul-20 22:57N 25°39' W 035°22'0 1.2 25.8
2014-Jul-20 22:54N 25°39' W 035°22'1 0.6 25.8
2014-Jul-20 21:57N 25°40' W 035°22'1 1.0 25.9
2014-Jul-20 20:57N 25°39' W 035°23'0 0.0 26.0
2014-Jul-20 20:14N 25°39' W 035°23'1 1.7 26.0
2014-Jul-20 19:48N 25°40' W 035°23'0 0.0 26.0
2014-Jul-20 19:21N 25°40' W 035°23'0 0.0 26.2
2014-Jul-20 19:11N 25°40' W 035°23'0 0.0
2014-Jul-20 18:10N 25°40' W 035°23'1 1.1 26.3
2014-Jul-20 17:35N 25°40' W 035°22'0 0.9 26.3
2014-Jul-20 17:18N 25°40' W 035°23'0 5.4 26.4
2014-Jul-20 17:15N 25°40' W 035°23'0 0.0 26.4
2014-Jul-20 16:27N 25°40' W 035°23'0 0.1 26.3
2014-Jul-20 15:38N 25°40' W 035°23'0 0.3 26.1
2014-Jul-20 14:08N 25°40' W 035°23'0 0.1 25.8
2014-Jul-20 13:20N 25°40' W 035°23'1 0.9 25.8
2014-Jul-20 12:27N 25°40' W 035°23'0 4.5 25.8
2014-Jul-20 12:22N 25°41' W 035°23'0 0.1 25.8
2014-Jul-20 11:42N 25°40' W 035°23'1 6.9 25.7
2014-Jul-20 11:36N 25°41' W 035°23'0 0.6 25.7
2014-Jul-20 10:48N 25°41' W 035°24'1 5.1 25.7
2014-Jul-20 10:41N 25°41' W 035°23'0 0.2
2014-Jul-20 09:42N 25°41' W 035°23'012.6 25.7
2014-Jul-20 09:41N 25°41' W 035°23'0 6.3 25.7
2014-Jul-20 09:39N 25°41' W 035°23'1 0.7 25.7
2014-Jul-20 08:27N 25°42' W 035°23'0 0.0 25.7
2014-Jul-20 08:01N 25°42' W 035°23'110.9 25.7
2014-Jul-20 07:57N 25°41' W 035°23'1 0.7 25.7
2014-Jul-20 06:48N 25°42' W 035°23'0 2.2 25.7
2014-Jul-20 06:40N 25°42' W 035°23'0 0.0 25.7
2014-Jul-20 06:22N 25°42' W 035°23'1 1.2 25.7
2014-Jul-20 05:52N 25°42' W 035°24'0 0.0 25.7
2014-Jul-20 05:49N 25°42' W 035°24'2 1.0 25.7
2014-Jul-20 04:10N 25°43' W 035°25'0 0.0 25.8
2014-Jul-20 04:08N 25°43' W 035°25'0 0.1 25.8
2014-Jul-20 00:57N 25°44' W 035°25'0 0.0
2014-Jul-20 00:55N 25°44' W 035°25'0 0.1 25.8
2014-Jul-20 00:07N 25°44' W 035°25'0 0.4 25.9
2014-Jul-19 23:20N 25°44' W 035°25'0 1.6 25.9
2014-Jul-19 23:11N 25°44' W 035°25'0 0.0
2014-Jul-19 23:09N 25°44' W 035°25'0 0.0 26.0
2014-Jul-19 22:29N 25°44' W 035°25'110.5 26.0
2014-Jul-19 22:23N 25°44' W 035°27'0 0.0 26.0
2014-Jul-19 22:17N 25°44' W 035°27'0 0.1 26.0
2014-Jul-19 20:01N 25°44' W 035°26'1 3.4 26.2
2014-Jul-19 19:45N 25°44' W 035°27'1 1.9 26.3
2014-Jul-19 19:10N 25°43' W 035°27'122.0 26.1
2014-Jul-19 19:07N 25°44' W 035°27'0 0.0 26.1
2014-Jul-19 18:22N 25°44' W 035°27'1 2.2 26.2
2014-Jul-19 18:01N 25°43' W 035°27'0 0.9 26.3
2014-Jul-19 17:29N 25°44' W 035°27'0 1.2 26.7
2014-Jul-19 17:26N 25°44' W 035°27'0 0.4 26.7
2014-Jul-19 16:38N 25°44' W 035°27'0 0.2 26.5
2014-Jul-19 15:51N 25°44' W 035°27'0 0.1 26.2
2014-Jul-19 13:42N 25°44' W 035°27'0 0.0
2014-Jul-19 12:47N 25°44' W 035°27'1 7.3 25.7
2014-Jul-19 12:42N 25°44' W 035°27'0 0.0
2014-Jul-19 12:07N 25°44' W 035°27'0 1.2 25.5
2014-Jul-19 12:04N 25°44' W 035°27'0 7.4 25.5
2014-Jul-19 12:01N 25°44' W 035°28'0 5.3 25.5
2014-Jul-19 11:56N 25°44' W 035°27'0 0.0 25.5
2014-Jul-19 11:10N 25°44' W 035°27'110.8 25.4
2014-Jul-19 11:07N 25°44' W 035°27'126.8 25.4
2014-Jul-19 11:04N 25°46' W 035°27'0 0.0 25.4
2014-Jul-19 10:09N 25°46' W 035°27'0 0.1 25.4
2014-Jul-19 08:37N 25°46' W 035°27'0 5.5 25.3
2014-Jul-19 08:34N 25°46' W 035°27'0 0.0 25.3
2014-Jul-19 08:26N 25°46' W 035°27'1 0.9 25.3
2014-Jul-19 06:56N 25°47' W 035°28'138.7 25.4
2014-Jul-19 06:54N 25°46' W 035°27'1 6.4 25.4
2014-Jul-19 06:42N 25°47' W 035°28'0 0.0 25.4
2014-Jul-19 06:10N 25°47' W 035°28'1 9.3 25.4
2014-Jul-19 06:03N 25°47' W 035°29'0 0.0 25.4
2014-Jul-19 04:27N 25°47' W 035°29'1 0.4 25.5
2014-Jul-19 02:44N 25°47' W 035°29'0 0.0 25.5
2014-Jul-19 00:26N 25°47' W 035°29'1 1.7 25.8
2014-Jul-18 23:40N 25°49' W 035°30'0 0.0 25.9
2014-Jul-18 23:37N 25°49' W 035°30'0 0.0 25.9
2014-Jul-18 23:34N 25°49' W 035°30'0 0.0 25.9
2014-Jul-18 22:48N 25°49' W 035°30'0 0.0 26.0
2014-Jul-18 22:42N 25°49' W 035°30'128.3 26.0
2014-Jul-18 22:39N 25°48' W 035°31'0 0.2 26.0
2014-Jul-18 20:08N 25°48' W 035°31'0 0.0 26.7
2014-Jul-18 20:05N 25°48' W 035°31'0 0.0 26.7
2014-Jul-18 19:36N 25°48' W 035°31'0 0.1 26.8
2014-Jul-18 18:33N 25°48' W 035°32'0 0.5 27.0
2014-Jul-18 18:26N 25°48' W 035°31'   27.1

Dump ship's entire track history